Terminal Aerodrome Forecast
Issued by NWS

Home | Current Version | Previous Version | Text Only | Print | Product List | Glossary On
Versions: 1 2 3 4 5 6 7 8 9 10 11 12 13 14 15 16 17 18 19 20 21 22 23 24 25 26 27 28 29 30 31 32
000
FTUS45 KGJT 220539
TAFTEX
TAF
KTEX 220539Z 2206/2306 10004KT P6SM VCSH OVC080
     FM220800 VRB03KT P6SM BKN045
     FM221400 00000KT P6SM VCSH BKN090
     FM221800 29005KT P6SM VCTS BKN100CB
     FM222100 08006KT P6SM VCTS OVC110CB
     FM230200 07008KT P6SM BKN080=

USA.gov is the U.S. government's official web portal to all federal, state and local government web resources and services.